Time;durP1;ratioP1;P1;durP2;ratioP2;P2;SDS_P1;SDS_P2;PMS_P1;PMS_P2;Temp;Humidity;BMP_temperature;BMP_pressure;BME280_temperature;BME280_humidity;BME280_pressure;Samples;Min_cycle;Max_cycle;Signal;HPM_P1;HPM_P2
2023/01/17 00:00:24;;;;;;;1.43;0.93;;;;;;;4.39;97.25;96632.28;5089658;28;20228;-81
2023/01/17 00:02:50;;;;;;;1.00;1.00;;;;;;;4.43;96.84;96622.63;5090968;28;20226;-81
2023/01/17 00:10:46;;;;;;;1.00;1.00;;;;;;;4.54;94.99;96667.59;5090587;28;20235;-81
2023/01/17 00:13:13;;;;;;;0.87;0.87;;;;;;;4.30;94.96;96671.50;5090981;28;20229;-81
2023/01/17 00:15:39;;;;;;;0.80;0.80;;;;;;;4.46;95.23;96672.34;5090581;28;20208;-81
2023/01/17 00:18:05;;;;;;;1.03;1.03;;;;;;;4.58;95.37;96663.91;5090480;28;20195;-79
2023/01/17 00:26:09;;;;;;;1.53;1.43;;;;;;;4.83;94.50;96690.94;5081316;28;20295;-81
2023/01/17 01:35:30;;;;;;;3.40;3.20;;;;;;;3.96;95.03;96787.72;5088530;28;20492;-79
2023/01/17 01:37:57;;;;;;;3.50;3.30;;;;;;;3.94;94.94;96789.53;5089045;28;20312;-79
2023/01/17 01:40:23;;;;;;;3.07;2.87;;;;;;;3.97;94.49;96797.09;5086995;28;20206;-78
2023/01/17 01:42:51;;;;;;;4.60;4.30;;;;;;;3.78;94.48;96824.72;5086891;28;20794;-79
2023/01/17 01:45:20;;;;;;;5.37;4.87;;;;;;;3.68;94.33;96808.06;5086663;28;20276;-79
2023/01/17 01:47:49;;;;;;;5.60;5.20;;;;;;;3.79;94.06;96816.09;5086846;28;20253;-79
2023/01/17 01:50:18;;;;;;;4.73;4.43;;;;;;;3.70;93.51;96835.44;5086429;28;20673;-79
2023/01/17 01:52:48;;;;;;;4.20;3.90;;;;;;;3.75;93.33;96848.13;5087173;28;20223;-79
2023/01/17 01:55:18;;;;;;;3.57;3.27;;;;;;;3.87;92.93;96854.41;5082216;28;20199;-79
2023/01/17 01:57:49;;;;;;;3.87;3.60;;;;;;;3.67;93.06;96866.53;5079146;28;20630;-79
2023/01/17 02:00:18;;;;;;;3.87;3.63;;;;;;;3.80;93.68;96861.59;5083490;28;20200;-78
2023/01/17 02:02:49;;;;;;;3.60;3.37;;;;;;;3.80;93.18;96871.09;5078297;28;20220;-79
2023/01/17 02:05:17;;;;;;;2.77;2.57;;;;;;;3.69;93.03;96869.88;5087338;28;20206;-79
2023/01/17 02:07:50;;;;;;;2.57;2.40;;;;;;;3.64;94.14;96863.28;5086732;28;20251;-79
2023/01/17 02:10:17;;;;;;;2.83;2.63;;;;;;;3.66;94.45;96856.28;5084050;28;20208;-80
2023/01/17 02:12:44;;;;;;;2.33;2.23;;;;;;;3.56;94.80;96841.25;5083121;28;20227;-79
2023/01/17 02:15:11;;;;;;;2.07;1.97;;;;;;;3.62;94.52;96836.72;5084440;28;20204;-79
2023/01/17 02:17:47;;;;;;;1.87;1.77;;;;;;;3.57;94.41;96853.25;5090890;22;20234;-81
2023/01/17 02:20:35;;;;;;;3.10;1.80;;;;;;;3.56;94.58;96853.31;5042345;28;20203;-81
2023/01/17 02:23:33;;;;;;;2.10;2.00;;;;;;;3.54;95.17;96843.09;5042365;28;20264;-80
2023/01/17 02:26:39;;;;;;;1.90;1.80;;;;;;;3.57;95.33;96836.97;5046129;28;20221;-81
2023/01/17 02:29:41;;;;;;;1.47;1.43;;;;;;;3.50;94.81;96841.56;5045889;28;20256;-81
2023/01/17 02:32:14;;;;;;;2.70;2.50;;;;;;;3.47;96.43;96831.41;5028717;28;20645;-81
2023/01/17 02:34:46;;;;;;;2.97;2.77;;;;;;;3.53;96.26;96825.13;5063480;28;20232;-81
2023/01/17 02:37:19;;;;;;;2.63;2.43;;;;;;;3.43;96.00;96829.91;5064774;28;20260;-81
2023/01/17 02:39:52;;;;;;;2.70;2.50;;;;;;;3.48;96.16;96827.09;5065622;28;20279;-81
2023/01/17 02:42:25;;;;;;;3.30;3.10;;;;;;;3.26;96.54;96833.28;5065373;28;20207;-81
2023/01/17 02:44:51;;;;;;;4.13;3.83;;;;;;;3.37;96.94;96817.31;5065513;28;20208;-81
2023/01/17 02:47:25;;;;;;;3.23;3.03;;;;;;;3.45;96.78;96822.94;5064447;28;20250;-81
2023/01/17 02:49:53;;;;;;;3.43;3.13;;;;;;;3.44;96.25;96831.56;5051209;28;20257;-81
2023/01/17 02:52:33;;;;;;;3.17;2.97;;;;;;;3.46;96.59;96841.78;5045283;28;20210;-80
2023/01/17 02:55:14;;;;;;;3.90;3.70;;;;;;;3.49;96.95;96847.66;5046126;28;20220;-81
2023/01/17 02:58:02;;;;;;;3.83;3.53;;;;;;;3.55;96.33;96851.69;5045709;28;20256;-81
2023/01/17 03:00:38;;;;;;;3.43;3.13;;;;;;;3.60;95.74;96878.06;5043597;28;20237;-81
2023/01/17 03:03:13;;;;;;;2.73;2.53;;;;;;;3.60;94.77;96901.25;5057814;28;20401;-80
2023/01/17 03:05:46;;;;;;;2.90;2.70;;;;;;;3.63;94.41;96915.75;5065115;28;20280;-80
2023/01/17 03:08:13;;;;;;;2.73;2.53;;;;;;;3.62;94.28;96925.22;5065047;28;20229;-81
2023/01/17 03:10:41;;;;;;;2.50;2.40;;;;;;;3.56;93.88;96946.97;5065359;28;20233;-80
2023/01/17 03:13:08;;;;;;;2.70;2.50;;;;;;;3.66;94.19;96941.41;5064482;28;20213;-81
2023/01/17 03:15:34;;;;;;;2.40;2.30;;;;;;;3.71;94.25;96958.31;5063206;28;20212;-79
2023/01/17 03:18:04;;;;;;;2.40;2.17;;;;;;;3.72;93.89;96948.84;5063210;28;20238;-81
2023/01/17 03:20:32;;;;;;;2.30;2.00;;;;;;;3.75;92.98;96970.16;5063074;28;20206;-81
2023/01/17 03:22:59;;;;;;;2.20;2.10;;;;;;;3.80;92.63;96980.25;5063328;28;20258;-80
2023/01/17 03:25:26;;;;;;;2.27;2.17;;;;;;;3.78;92.49;96989.81;5062608;28;20278;-81
2023/01/17 03:27:52;;;;;;;2.87;2.67;;;;;;;3.71;92.82;96996.19;5063106;28;20244;-80
2023/01/17 03:30:20;;;;;;;2.13;1.93;;;;;;;3.72;93.26;96990.09;5062228;28;20586;-80
2023/01/17 03:32:46;;;;;;;2.00;1.90;;;;;;;3.75;92.57;96995.13;5054167;28;20212;-80
2023/01/17 03:35:13;;;;;;;2.00;1.90;;;;;;;3.80;92.94;97013.78;5061910;28;20731;-81
2023/01/17 03:37:41;;;;;;;2.17;2.07;;;;;;;3.80;93.19;97000.91;5063003;28;20713;-81
2023/01/17 03:40:09;;;;;;;1.90;1.80;;;;;;;3.74;93.11;97008.94;5063037;28;20249;-81
2023/01/17 03:42:35;;;;;;;1.70;1.60;;;;;;;3.89;92.83;97015.13;5063649;28;20207;-80
2023/01/17 03:45:02;;;;;;;1.93;1.83;;;;;;;3.87;92.14;97027.25;5062732;28;20258;-81
2023/01/17 03:47:28;;;;;;;1.73;1.63;;;;;;;3.86;91.97;97044.47;5062432;28;20231;-81
2023/01/17 03:49:55;;;;;;;1.90;1.80;;;;;;;3.96;91.55;97053.47;5054161;28;20205;-80
2023/01/17 03:52:21;;;;;;;2.00;1.90;;;;;;;3.81;91.89;97061.91;5046434;28;20205;-79
2023/01/17 03:54:49;;;;;;;2.00;1.83;;;;;;;3.97;92.09;97065.44;5061266;28;20203;-81
2023/01/17 03:57:15;;;;;;;2.27;2.10;;;;;;;4.02;92.13;97065.22;5062908;28;20485;-80
2023/01/17 03:59:41;;;;;;;1.97;1.87;;;;;;;4.08;92.38;97052.03;5055297;28;20337;-81
2023/01/17 04:02:08;;;;;;;2.50;2.13;;;;;;;4.03;92.52;97066.91;5056106;28;20200;-79
2023/01/17 04:04:34;;;;;;;2.30;2.20;;;;;;;3.83;93.88;97042.03;5061716;28;20204;-81
2023/01/17 04:07:00;;;;;;;2.50;2.30;;;;;;;3.86;94.20;97020.41;5061596;28;20771;-81
2023/01/17 04:09:27;;;;;;;2.50;2.40;;;;;;;3.75;95.87;96995.13;5052081;28;20236;-80
2023/01/17 04:11:55;;;;;;;2.50;2.30;;;;;;;3.73;96.36;96971.16;5041532;28;20215;-81
2023/01/17 04:14:21;;;;;;;2.57;2.37;;;;;;;3.64;96.15;96966.44;5041262;28;20228;-81
2023/01/17 04:16:47;;;;;;;3.00;2.60;;;;;;;3.68;95.96;96973.09;5041489;28;20216;-80
2023/01/17 04:19:14;;;;;;;3.33;3.13;;;;;;;3.70;95.53;96977.28;5040790;28;20230;-81
2023/01/17 04:21:40;;;;;;;2.63;2.43;;;;;;;3.69;95.43;96991.09;5052203;28;20205;-80
2023/01/17 04:24:07;;;;;;;3.27;3.07;;;;;;;3.67;94.52;97005.81;5061453;28;20654;-81
2023/01/17 04:26:34;;;;;;;2.57;2.47;;;;;;;3.68;94.27;97030.69;5053636;28;20702;-81
2023/01/17 04:29:01;;;;;;;2.97;2.77;;;;;;;3.69;94.34;97023.81;5053612;28;20223;-81
2023/01/17 04:31:28;;;;;;;2.53;2.43;;;;;;;3.74;94.26;97042.47;5062508;28;20262;-81
2023/01/17 04:33:54;;;;;;;2.70;2.40;;;;;;;3.66;95.15;97024.75;5061943;28;20205;-79
2023/01/17 04:36:20;;;;;;;2.87;2.67;;;;;;;3.72;94.62;97032.22;5061888;28;20226;-80
2023/01/17 04:38:47;;;;;;;3.40;3.00;;;;;;;3.77;94.89;97037.16;5062265;28;20287;-80
2023/01/17 04:41:13;;;;;;;3.43;3.20;;;;;;;3.85;94.67;97047.13;5062116;28;20307;-80
2023/01/17 04:43:40;;;;;;;2.60;2.40;;;;;;;3.69;93.74;97062.50;5052656;28;20208;-81
2023/01/17 04:46:08;;;;;;;1.50;1.40;;;;;;;3.73;93.67;97064.00;5055552;28;20616;-81
2023/01/17 04:48:35;;;;;;;1.80;1.70;;;;;;;3.51;94.10;97070.16;5062130;28;20256;-81
2023/01/17 04:51:02;;;;;;;1.87;1.77;;;;;;;3.50;95.08;97052.97;5061913;28;20208;-81
2023/01/17 04:53:29;;;;;;;1.67;1.57;;;;;;;3.45;95.58;97047.22;5062009;28;20213;-81
2023/01/17 04:55:55;;;;;;;1.50;1.40;;;;;;;3.57;95.43;97036.34;5062361;28;20241;-81
2023/01/17 04:58:22;;;;;;;1.53;1.43;;;;;;;3.54;94.92;97045.94;5056502;28;20229;-81
2023/01/17 05:00:49;;;;;;;1.23;1.13;;;;;;;3.46;95.09;97040.31;5052055;28;20662;-81
2023/01/17 05:03:17;;;;;;;1.03;1.03;;;;;;;3.51;94.36;97041.78;5061044;28;20296;-80
2023/01/17 05:05:44;;;;;;;1.00;1.00;;;;;;;3.41;94.17;97056.00;5061828;28;20692;-81
2023/01/17 05:08:10;;;;;;;0.90;0.90;;;;;;;3.45;94.19;97062.69;5061379;28;20258;-81
2023/01/17 05:10:36;;;;;;;0.80;0.80;;;;;;;3.51;94.22;97064.16;5061791;28;20197;-81
2023/01/17 05:13:03;;;;;;;0.73;0.73;;;;;;;3.37;94.13;97078.50;5061587;28;20620;-81
2023/01/17 05:15:29;;;;;;;0.90;0.90;;;;;;;3.31;95.07;97080.47;5061598;28;20211;-81
2023/01/17 05:17:56;;;;;;;0.80;0.80;;;;;;;3.23;95.44;97067.97;5061144;28;20285;-80
2023/01/17 05:20:26;;;;;;;0.97;0.97;;;;;;;3.23;96.74;97057.66;5061179;28;20210;-80
2023/01/17 05:22:54;;;;;;;1.60;1.33;;;;;;;3.23;97.34;97046.47;5062094;28;20691;-79
2023/01/17 05:25:21;;;;;;;2.03;1.83;;;;;;;3.09;98.47;97035.06;5061891;28;20301;-81
2023/01/17 05:27:48;;;;;;;2.83;1.53;;;;;;;3.16;99.32;97018.41;5062052;28;20692;-80
2023/01/17 05:30:14;;;;;;;2.50;1.80;;;;;;;3.01;100.00;97018.25;5049555;28;20199;-81
2023/01/17 05:32:41;;;;;;;1.83;1.57;;;;;;;3.11;100.00;97011.78;5060269;28;20199;-80
2023/01/17 05:35:09;;;;;;;1.30;1.23;;;;;;;2.85;100.00;97003.47;5062272;28;20203;-81
2023/01/17 05:37:36;;;;;;;1.43;1.33;;;;;;;2.78;100.00;96984.88;5061234;28;20248;-80
2023/01/17 05:40:04;;;;;;;1.20;1.10;;;;;;;2.78;100.00;96984.03;5062222;28;20203;-80
2023/01/17 05:42:31;;;;;;;0.80;0.80;;;;;;;2.71;100.00;96996.31;5062414;28;20240;-81
2023/01/17 05:44:57;;;;;;;0.83;0.60;;;;;;;2.71;100.00;96987.78;5061404;28;20213;-81
2023/01/17 05:47:24;;;;;;;0.60;0.60;;;;;;;2.44;100.00;96985.47;5062119;28;20225;-82
2023/01/17 05:49:50;;;;;;;0.40;0.40;;;;;;;2.33;100.00;96980.75;5061720;28;20236;-81
2023/01/17 05:52:16;;;;;;;0.30;0.30;;;;;;;2.23;100.00;96987.19;5061797;28;20209;-81
2023/01/17 05:54:44;;;;;;;0.30;0.30;;;;;;;2.26;100.00;96984.50;5061916;28;20209;-81
2023/01/17 05:57:12;;;;;;;0.27;0.27;;;;;;;2.23;100.00;96983.78;5062040;28;20202;-81
2023/01/17 05:59:38;;;;;;;0.20;0.20;;;;;;;1.97;100.00;96995.97;5056629;28;20209;-80
2023/01/17 06:02:04;;;;;;;0.30;0.30;;;;;;;2.11;100.00;96993.69;5059188;28;20221;-80
2023/01/17 06:04:31;;;;;;;0.30;0.30;;;;;;;2.12;100.00;97007.38;5065674;28;20209;-81
2023/01/17 06:06:58;;;;;;;0.83;0.30;;;;;;;2.06;100.00;97028.19;5065009;28;20696;-81
2023/01/17 06:09:24;;;;;;;0.20;0.20;;;;;;;2.17;100.00;97028.63;5066085;28;20229;-80
2023/01/17 06:11:52;;;;;;;0.20;0.20;;;;;;;2.00;100.00;97044.72;5064202;28;20235;-80
2023/01/17 06:14:18;;;;;;;1.23;0.30;;;;;;;1.96;100.00;97041.44;5065019;28;20269;-80
2023/01/17 06:16:46;;;;;;;0.27;0.27;;;;;;;1.96;100.00;97061.16;5064941;28;20229;-80
2023/01/17 06:19:12;;;;;;;0.30;0.20;;;;;;;2.02;100.00;97063.50;5063382;28;20268;-80
2023/01/17 06:21:39;;;;;;;0.20;0.20;;;;;;;1.88;100.00;97076.06;5054327;28;20729;-80
2023/01/17 06:24:06;;;;;;;0.27;0.27;;;;;;;1.59;100.00;97081.41;5064151;28;20228;-80
2023/01/17 06:26:33;;;;;;;0.30;0.20;;;;;;;1.54;100.00;97075.59;5064550;28;20209;-78
2023/01/17 06:29:01;;;;;;;0.30;0.30;;;;;;;1.31;100.00;97083.28;5061319;28;20731;-80
2023/01/17 06:31:27;;;;;;;0.80;0.40;;;;;;;1.34;100.00;97083.19;5062620;28;20605;-81
2023/01/17 06:33:54;;;;;;;0.40;0.30;;;;;;;1.34;100.00;97085.78;5065162;28;20205;-79
2023/01/17 06:36:20;;;;;;;0.20;0.20;;;;;;;1.43;100.00;97088.03;5064922;28;20210;-79
2023/01/17 06:38:49;;;;;;;0.30;0.30;;;;;;;1.30;100.00;97094.47;5062209;28;20229;-80
2023/01/17 06:41:16;;;;;;;0.40;0.40;;;;;;;1.28;100.00;97098.84;5063188;28;20209;-80
2023/01/17 06:43:42;;;;;;;0.20;0.20;;;;;;;1.34;100.00;97116.59;5062302;28;20632;-80
2023/01/17 06:46:10;;;;;;;0.10;0.10;;;;;;;1.32;100.00;97108.13;5063803;28;20224;-80
2023/01/17 06:48:36;;;;;;;0.20;0.20;;;;;;;1.33;100.00;97122.66;5062772;28;20292;-80
2023/01/17 06:51:03;;;;;;;0.93;0.30;;;;;;;1.27;100.00;97128.84;5056620;28;20272;-80
2023/01/17 06:53:29;;;;;;;0.83;0.40;;;;;;;1.30;100.00;97135.59;5059772;28;20210;-80
2023/01/17 06:55:56;;;;;;;0.33;0.20;;;;;;;1.35;100.00;97144.81;5063780;28;20365;-80
2023/01/17 06:58:23;;;;;;;0.30;0.30;;;;;;;1.34;100.00;97161.13;5058166;28;20229;-81
2023/01/17 07:00:49;;;;;;;0.50;0.50;;;;;;;1.13;100.00;97154.13;5055079;28;20341;-80
2023/01/17 07:03:20;;;;;;;0.67;0.50;;;;;;;1.34;100.00;97152.56;5063657;28;20229;-80
2023/01/17 07:05:47;;;;;;;0.70;0.33;;;;;;;1.30;100.00;97161.28;5064454;28;20748;-81
2023/01/17 07:08:15;;;;;;;0.50;0.50;;;;;;;1.27;100.00;97171.66;5064216;28;20229;-80
2023/01/17 07:10:43;;;;;;;0.60;0.60;;;;;;;1.27;100.00;97171.66;5064456;28;20268;-80
2023/01/17 07:13:10;;;;;;;1.17;0.47;;;;;;;1.35;100.00;97180.78;5064961;28;20224;-80
2023/01/17 07:15:36;;;;;;;1.07;0.87;;;;;;;1.28;100.00;97194.72;5064680;28;20213;-81
2023/01/17 07:18:03;;;;;;;1.00;0.87;;;;;;;1.31;100.00;97197.22;5064595;28;20316;-80
2023/01/17 07:20:31;;;;;;;1.10;1.00;;;;;;;1.30;100.00;97200.66;5063998;28;20205;-80
2023/01/17 07:22:58;;;;;;;1.40;1.30;;;;;;;1.25;100.00;97235.09;5064011;28;20581;-80
2023/01/17 07:25:25;;;;;;;1.90;1.43;;;;;;;1.37;100.00;97235.53;5064875;28;20234;-80
2023/01/17 07:27:53;;;;;;;2.23;0.90;;;;;;;1.39;100.00;97240.63;5064923;28;20226;-81
2023/01/17 07:30:20;;;;;;;0.80;0.70;;;;;;;1.57;100.00;97247.72;5046886;28;20202;-81
2023/01/17 07:32:50;;;;;;;0.67;0.67;;;;;;;1.60;100.00;97262.19;5061159;28;20205;-79
2023/01/17 07:35:17;;;;;;;0.20;0.20;;;;;;;1.59;100.00;97270.78;5061919;28;20221;-80
2023/01/17 07:37:48;;;;;;;0.30;0.30;;;;;;;1.59;100.00;97269.06;5063170;28;20280;-80
2023/01/17 07:40:16;;;;;;;0.57;0.40;;;;;;;1.61;100.00;97275.91;5052949;28;20747;-78
2023/01/17 07:42:42;;;;;;;0.30;0.30;;;;;;;1.71;100.00;97284.97;5053645;28;20201;-79
2023/01/17 07:45:10;;;;;;;0.53;0.37;;;;;;;1.78;100.00;97282.13;5062278;28;20259;-79
2023/01/17 07:47:37;;;;;;;0.70;0.70;;;;;;;1.71;100.00;97292.69;5062080;28;20236;-79
2023/01/17 07:50:04;;;;;;;0.50;0.47;;;;;;;1.52;100.00;97292.44;5060525;28;20205;-80
2023/01/17 07:52:30;;;;;;;2.40;0.80;;;;;;;1.37;100.00;97289.50;5061264;28;20202;-80
2023/01/17 07:54:58;;;;;;;1.57;1.20;;;;;;;1.36;100.00;97302.41;5049966;28;20513;-79
2023/01/17 07:57:25;;;;;;;1.30;1.20;;;;;;;1.50;100.00;97305.34;5041696;28;20213;-80
2023/01/17 07:59:51;;;;;;;7.50;1.20;;;;;;;1.39;100.00;97325.44;5041162;28;20232;-80
2023/01/17 08:02:19;;;;;;;1.70;1.60;;;;;;;1.51;100.00;97343.03;5047145;28;20217;-79
2023/01/17 08:04:46;;;;;;;2.00;1.80;;;;;;;1.54;100.00;97349.78;5054678;28;20672;-79
2023/01/17 08:07:13;;;;;;;2.03;1.30;;;;;;;1.60;100.00;97352.16;5060816;28;20203;-79
2023/01/17 08:09:40;;;;;;;1.70;1.33;;;;;;;1.72;100.00;97367.16;5061183;28;20312;-81
2023/01/17 08:12:08;;;;;;;1.70;1.27;;;;;;;1.75;100.00;97381.66;5058815;28;20210;-80
2023/01/17 08:14:34;;;;;;;1.60;1.00;;;;;;;1.91;100.00;97387.97;5060594;28;20255;-79
2023/01/17 08:17:04;;;;;;;0.80;0.80;;;;;;;1.90;100.00;97409.47;5059149;28;20759;-79
2023/01/17 08:19:31;;;;;;;1.10;0.95;;;;;;;1.95;100.00;97428.13;5053982;23;20905;-79
2023/01/17 08:21:57;;;;;;;1.57;0.97;;;;;;;2.02;99.45;97436.47;5043505;28;20211;-79
2023/01/17 08:24:23;;;;;;;1.40;1.10;;;;;;;1.92;99.42;97447.97;5043426;28;20207;-77
2023/01/17 08:26:50;;;;;;;2.60;1.07;;;;;;;2.00;99.41;97466.56;5044322;28;20201;-78
2023/01/17 08:29:18;;;;;;;2.03;1.20;;;;;;;1.91;97.37;97487.44;5049091;28;20708;-78
2023/01/17 08:31:44;;;;;;;5.23;1.37;;;;;;;1.99;97.73;97499.16;5055393;28;20295;-78
2023/01/17 08:34:12;;;;;;;2.50;1.20;;;;;;;2.06;97.64;97511.81;5053927;28;20205;-77
2023/01/17 08:36:39;;;;;;;1.53;1.10;;;;;;;2.09;96.85;97529.75;5053433;28;20207;-77
2023/01/17 08:39:06;;;;;;;1.30;1.20;;;;;;;2.07;96.68;97544.41;5044939;28;20717;-85
2023/01/17 08:41:32;;;;;;;1.50;1.00;;;;;;;2.13;96.93;97550.19;5053967;28;20213;-81
2023/01/17 08:43:59;;;;;;;1.03;0.90;;;;;;;2.04;95.81;97562.50;5057699;28;20552;-79
2023/01/17 08:46:26;;;;;;;1.23;0.90;;;;;;;2.08;96.00;97582.09;5041620;28;20203;-79
2023/01/17 08:48:54;;;;;;;1.10;1.00;;;;;;;1.97;96.05;97583.25;5045011;28;20313;-83
2023/01/17 08:51:21;;;;;;;2.13;0.97;;;;;;;2.16;95.48;97600.69;5036374;28;20208;-81
2023/01/17 08:53:48;;;;;;;4.63;0.83;;;;;;;2.26;95.26;97614.13;5038022;28;20207;-81
2023/01/17 08:56:14;;;;;;;0.80;0.80;;;;;;;2.29;94.33;97634.63;5048034;28;20226;-81
2023/01/17 08:58:41;;;;;;;1.20;0.80;;;;;;;2.18;93.42;97663.25;5054718;28;20283;-82
2023/01/17 09:01:07;;;;;;;1.13;1.00;;;;;;;2.21;94.11;97654.63;5054369;28;20215;-79
2023/01/17 09:03:35;;;;;;;0.80;0.80;;;;;;;2.36;93.92;97644.69;5054630;28;20260;-81
2023/01/17 09:06:03;;;;;;;4.03;1.30;;;;;;;2.19;93.62;97675.25;5054590;28;20611;-81
2023/01/17 09:08:29;;;;;;;3.03;1.30;;;;;;;2.33;93.81;97672.25;5054614;28;20239;-79
2023/01/17 09:10:56;;;;;;;2.37;1.77;;;;;;;2.18;92.86;97688.97;5047020;28;20227;-82
2023/01/17 09:13:22;;;;;;;4.33;2.03;;;;;;;2.19;92.85;97694.09;5049959;28;20209;-79
2023/01/17 09:15:48;;;;;;;2.87;1.20;;;;;;;2.37;92.66;97697.84;5054749;28;20273;-79
2023/01/17 09:18:15;;;;;;;1.27;1.10;;;;;;;2.44;93.40;97698.53;5053933;28;20247;-80
2023/01/17 09:20:42;;;;;;;1.43;1.10;;;;;;;2.19;92.31;97722.41;5054268;28;20209;-81
2023/01/17 09:23:09;;;;;;;3.63;1.37;;;;;;;2.25;92.31;97726.53;5054350;28;20205;-80
2023/01/17 09:25:35;;;;;;;1.63;1.03;;;;;;;2.30;92.73;97726.38;5054390;28;20737;-81
2023/01/17 09:28:02;;;;;;;1.47;1.10;;;;;;;2.19;92.34;97724.97;5051894;28;20230;-78
2023/01/17 09:30:28;;;;;;;1.93;1.40;;;;;;;2.38;92.35;97725.28;5042127;28;20256;-79
2023/01/17 09:32:55;;;;;;;1.30;1.20;;;;;;;2.39;92.36;97737.25;5027718;28;20253;-81
2023/01/17 09:35:21;;;;;;;2.07;1.10;;;;;;;2.41;92.15;97749.25;5035460;28;20232;-81
2023/01/17 09:37:50;;;;;;;3.53;1.30;;;;;;;2.45;91.64;97750.84;5035194;28;20236;-79
2023/01/17 09:40:19;;;;;;;4.20;1.70;;;;;;;2.33;91.41;97759.75;5035500;28;20209;-81
2023/01/17 09:42:50;;;;;;;1.50;1.40;;;;;;;2.36;92.89;97732.22;5036048;28;20204;-80
2023/01/17 09:45:18;;;;;;;2.43;1.60;;;;;;;2.16;90.77;97767.94;5036006;28;20213;-80
2023/01/17 09:47:46;;;;;;;3.47;1.87;;;;;;;2.21;90.54;97785.84;5035169;28;20227;-82
2023/01/17 09:50:24;;;;;;;5.10;1.87;;;;;;;2.33;90.52;97795.81;5034262;28;20340;-81
2023/01/17 09:52:59;;;;;;;4.97;1.97;;;;;;;2.23;89.12;97825.25;5036727;28;20199;-83
2023/01/17 09:55:28;;;;;;;3.67;1.87;;;;;;;2.18;89.88;97831.38;5045946;28;20202;-81
2023/01/17 09:58:00;;;;;;;3.17;1.70;;;;;;;2.26;90.13;97835.44;5051076;28;20269;-82
2023/01/17 10:00:40;;;;;;;2.40;1.47;;;;;;;2.30;90.25;97831.91;5045458;28;20197;-83
2023/01/17 10:03:26;;;;;;;2.97;1.60;;;;;;;2.21;90.23;97845.03;5058118;28;20205;-82
2023/01/17 10:06:03;;;;;;;1.80;1.70;;;;;;;2.15;89.44;97858.91;5056435;28;20206;-83
2023/01/17 10:08:58;;;;;;;3.83;1.50;;;;;;;2.37;89.68;97864.31;5054528;28;20285;-83
2023/01/17 10:11:36;;;;;;;2.70;1.27;;;;;;;2.59;89.71;97872.28;5055899;28;20233;-80
2023/01/17 10:14:21;;;;;;;2.63;1.43;;;;;;;2.65;88.10;97884.16;5053448;28;20205;-81
2023/01/17 10:16:54;;;;;;;2.43;1.23;;;;;;;2.57;87.22;97912.69;5048032;28;20265;-85
2023/01/17 10:19:54;;;;;;;4.60;1.40;;;;;;;2.67;86.51;97954.50;5055392;28;20519;-82
2023/01/17 10:22:39;;;;;;;2.90;1.95;;;;;;;2.64;87.48;97946.88;5033107;28;20531;-82
2023/01/17 10:25:22;;;;;;;3.97;1.90;;;;;;;2.70;86.96;97946.69;5055585;28;20211;-82
2023/01/17 10:27:56;;;;;;;4.43;1.70;;;;;;;2.74;85.64;97977.47;5056631;28;20462;-81
2023/01/17 10:30:26;;;;;;;3.90;1.50;;;;;;;2.75;85.05;97992.03;5048996;28;20932;-81
2023/01/17 10:32:56;;;;;;;3.17;1.90;;;;;;;2.90;86.39;97983.03;5048712;28;20274;-80
2023/01/17 10:35:26;;;;;;;2.00;1.33;;;;;;;2.88;84.88;97991.72;5056770;28;20203;-82
2023/01/17 10:37:55;;;;;;;2.60;1.40;;;;;;;2.80;84.75;98024.56;5054536;28;20228;-81
2023/01/17 10:40:32;;;;;;;2.10;1.37;;;;;;;2.84;85.46;98014.13;5055082;28;20212;-84
2023/01/17 10:43:04;;;;;;;2.57;1.53;;;;;;;2.83;84.54;98011.59;5055643;28;20249;-83
2023/01/17 10:45:42;;;;;;;2.73;1.47;;;;;;;2.68;84.71;98028.31;5057732;28;20274;-83
2023/01/17 10:48:15;;;;;;;4.83;1.80;;;;;;;2.83;84.14;98033.03;5049709;28;20232;-80
2023/01/17 10:50:53;;;;;;;2.97;2.03;;;;;;;2.63;83.55;98051.59;5057484;28;20205;-81
2023/01/17 10:53:39;;;;;;;2.47;1.53;;;;;;;2.67;83.93;98048.03;5060665;28;20338;-82
2023/01/17 10:56:08;;;;;;;1.97;1.70;;;;;;;2.73;84.27;98039.31;5058875;28;20759;-82
2023/01/17 10:58:34;;;;;;;4.47;1.60;;;;;;;2.91;84.25;98040.56;5058672;28;20227;-82
2023/01/17 11:01:06;;;;;;;3.83;2.07;;;;;;;2.81;82.97;98055.41;5057200;28;20264;-80
2023/01/17 11:03:34;;;;;;;4.40;1.77;;;;;;;2.87;82.20;98090.47;4342587;28;10000010;-80
2023/01/17 11:06:18;;;;;;;4.60;1.97;;;;;;;2.86;82.20;98093.97;5034800;28;20204;-81
2023/01/17 11:08:53;;;;;;;3.90;1.60;;;;;;;2.74;82.26;98097.69;5035366;28;20305;-80
2023/01/17 11:11:24;;;;;;;1.60;1.50;;;;;;;2.73;82.51;98093.41;5035864;28;20260;-80
2023/01/17 11:13:53;;;;;;;3.27;1.53;;;;;;;2.80;82.19;98094.13;5034853;28;20257;-81
2023/01/17 11:16:21;;;;;;;4.03;1.90;;;;;;;2.91;82.87;98077.47;5035540;28;20199;-81
2023/01/17 11:19:04;;;;;;;2.90;1.97;;;;;;;2.93;82.30;98080.03;5037652;28;20234;-80
2023/01/17 11:21:32;;;;;;;2.77;1.60;;;;;;;2.86;81.36;98091.38;5046883;28;20213;-80
2023/01/17 11:24:10;;;;;;;4.30;1.70;;;;;;;2.93;81.40;98104.06;5054473;28;20213;-79
2023/01/17 11:26:47;;;;;;;2.70;1.67;;;;;;;2.73;80.98;98106.28;5056543;28;20299;-81
2023/01/17 11:29:15;;;;;;;2.90;1.70;;;;;;;2.76;81.74;98124.25;5054887;28;20705;-80
2023/01/17 11:31:41;;;;;;;3.80;1.43;;;;;;;2.88;81.83;98097.34;5051382;28;20205;-78
2023/01/17 11:34:16;;;;;;;2.93;1.43;;;;;;;2.90;81.23;98118.75;5046399;28;20239;-76
2023/01/17 11:36:43;;;;;;;3.07;1.50;;;;;;;2.76;80.98;98135.41;5041457;28;20207;-77
2023/01/17 11:39:26;;;;;;;4.33;1.53;;;;;;;2.87;82.34;98111.94;5050937;28;20232;-77
2023/01/17 11:41:54;;;;;;;2.53;1.20;;;;;;;2.83;81.51;98100.03;5051116;28;20205;-77
2023/01/17 11:44:23;;;;;;;4.27;1.27;;;;;;;2.96;80.75;98108.28;5050636;28;20613;-76
2023/01/17 11:47:08;;;;;;;7.33;1.30;;;;;;;2.96;80.06;98134.91;5050557;28;20209;-77
2023/01/17 11:49:35;;;;;;;3.13;1.27;;;;;;;3.11;80.70;98131.09;5050353;28;20329;-78
2023/01/17 11:52:07;;;;;;;1.50;1.10;;;;;;;2.87;79.14;98145.44;5038478;28;20616;-78
2023/01/17 11:54:38;;;;;;;3.33;1.73;;;;;;;2.97;80.28;98156.34;5047758;28;20207;-77
2023/01/17 11:57:16;;;;;;;3.60;0.93;;;;;;;3.03;79.48;98168.25;5049365;28;20191;-77
2023/01/17 11:59:43;;;;;;;2.00;1.23;;;;;;;3.02;78.91;98180.28;5042325;28;20734;-77
2023/01/17 12:02:48;;;;;;;2.50;1.37;;;;;;;3.11;79.73;98184.34;5043960;28;20259;-77
2023/01/17 12:05:37;;;;;;;2.33;1.37;;;;;;;3.06;79.26;98174.16;5024146;28;20203;-77
2023/01/17 12:08:13;;;;;;;4.90;1.40;;;;;;;3.02;78.51;98180.28;5038267;28;20229;-77
2023/01/17 12:10:52;;;;;;;2.77;1.60;;;;;;;3.17;79.16;98173.88;5048601;28;20301;-77
2023/01/17 12:16:31;;;;;;;3.70;1.47;;;;;;;3.02;78.20;98182.03;5050960;28;20608;-77
2023/01/17 12:19:33;;;;;;;2.57;1.60;;;;;;;3.21;79.06;98182.41;5041332;28;20282;-77
2023/01/17 12:22:17;;;;;;;6.10;1.80;;;;;;;3.37;78.42;98174.22;5012378;28;20201;-77
2023/01/17 12:25:02;;;;;;;1.60;1.50;;;;;;;3.53;78.24;98184.97;5021751;28;20232;-78
2023/01/17 12:27:37;;;;;;;3.20;2.10;;;;;;;3.66;76.67;98210.44;5023358;28;20201;-78
2023/01/17 12:30:18;;;;;;;2.67;1.43;;;;;;;3.51;75.32;98243.50;5022693;28;20621;-78
2023/01/17 12:33:17;;;;;;;2.53;1.37;;;;;;;3.46;74.57;98289.19;5039019;28;20212;-76
2023/01/17 12:35:49;;;;;;;3.47;1.43;;;;;;;3.59;75.73;98292.31;5050068;28;20209;-76
2023/01/17 12:38:21;;;;;;;3.00;1.70;;;;;;;3.58;75.74;98281.13;5044823;28;20338;-77
2023/01/17 12:40:53;;;;;;;4.00;1.40;;;;;;;3.36;74.50;98303.19;5040395;28;20193;-78
2023/01/17 12:43:25;;;;;;;2.40;1.57;;;;;;;3.26;74.68;98317.19;5049860;28;20229;-77
2023/01/17 12:45:54;;;;;;;1.87;1.40;;;;;;;3.14;75.57;98318.31;5050005;28;20197;-77
2023/01/17 12:48:22;;;;;;;2.27;1.60;;;;;;;3.15;76.55;98310.56;5050135;28;20239;-76
2023/01/17 12:50:52;;;;;;;1.90;1.50;;;;;;;3.35;76.89;98286.88;5049140;28;20239;-76
2023/01/17 12:53:29;;;;;;;4.00;1.70;;;;;;;3.42;76.54;98284.16;5049371;28;20213;-77
2023/01/17 12:56:02;;;;;;;3.70;1.50;;;;;;;3.31;75.23;98295.59;5047491;28;20215;-76
2023/01/17 12:58:37;;;;;;;1.77;1.67;;;;;;;3.43;75.23;98312.47;5041069;28;20233;-78
2023/01/17 13:01:15;;;;;;;4.67;1.97;;;;;;;3.59;75.37;98315.53;5050303;28;20267;-76
2023/01/17 13:03:54;;;;;;;2.37;1.70;;;;;;;3.44;74.75;98321.91;5037424;28;20205;-78
2023/01/17 13:06:29;;;;;;;17.47;12.67;;;;;;;3.46;75.01;98322.72;5033714;28;20229;-77
2023/01/17 13:09:00;;;;;;;10.23;7.73;;;;;;;3.39;74.30;98344.38;5029155;28;20226;-78
2023/01/17 13:11:32;;;;;;;3.17;2.40;;;;;;;3.48;73.50;98356.22;5030433;28;20210;-77
2023/01/17 13:13:59;;;;;;;3.20;2.43;;;;;;;3.50;73.68;98373.34;5032315;28;20210;-78